createdAt,value
2022-12-16T00:01:15.563Z,28.73
2022-12-16T00:03:46.621Z,27.58
2022-12-16T00:06:13.059Z,27.75
2022-12-16T00:08:40.118Z,26.88
2022-12-16T00:11:07.902Z,23.80
2022-12-16T00:13:36.381Z,25.58
2022-12-16T00:16:11.918Z,25.60
2022-12-16T00:18:39.150Z,23.30
2022-12-16T00:21:06.284Z,25.73
2022-12-16T00:23:33.981Z,25.55
2022-12-16T00:26:01.205Z,25.83
2022-12-16T00:28:27.977Z,24.90
2022-12-16T00:30:56.008Z,24.85
2022-12-16T00:33:24.384Z,23.67
2022-12-16T00:35:51.875Z,22.13
2022-12-16T00:38:19.410Z,24.50
2022-12-16T00:40:46.231Z,22.50
2022-12-16T00:43:12.931Z,24.42
2022-12-16T00:45:39.623Z,25.13
2022-12-16T00:48:06.964Z,26.02
2022-12-16T00:50:34.605Z,25.45
2022-12-16T00:53:01.265Z,24.83
2022-12-16T00:55:27.731Z,25.25
2022-12-16T00:57:54.908Z,25.23
2022-12-16T01:00:22.528Z,25.77
2022-12-16T01:02:50.765Z,25.90
2022-12-16T01:05:20.752Z,27.58
2022-12-16T01:07:48.271Z,26.85
2022-12-16T01:10:15.011Z,28.63
2022-12-16T01:12:41.630Z,26.80
2022-12-16T01:15:09.102Z,28.45
2022-12-16T01:17:35.788Z,27.45
2022-12-16T01:20:02.936Z,25.90
2022-12-16T01:22:33.218Z,26.73
2022-12-16T01:25:00.569Z,26.20
2022-12-16T01:27:29.056Z,27.35
2022-12-16T01:29:55.766Z,27.58
2022-12-16T01:32:23.047Z,25.80
2022-12-16T01:34:55.423Z,26.58
2022-12-16T01:37:23.183Z,21.00
2022-12-16T01:39:49.810Z,25.20
2022-12-16T01:42:20.029Z,25.58
2022-12-16T01:44:48.958Z,27.17
2022-12-16T01:47:31.161Z,27.55
2022-12-16T01:50:00.419Z,29.33
2022-12-16T01:52:33.819Z,30.05
2022-12-16T01:55:12.540Z,27.70
2022-12-16T01:57:59.378Z,28.38
2022-12-16T02:00:25.890Z,29.20
2022-12-16T02:02:53.951Z,30.02
2022-12-16T02:05:21.622Z,31.55
2022-12-16T02:07:59.082Z,29.52
2022-12-16T02:10:51.339Z,29.33
2022-12-16T02:14:01.174Z,31.27
2022-12-16T02:16:39.340Z,29.52
2022-12-16T02:19:41.650Z,30.65
2022-12-16T02:22:28.938Z,32.00
2022-12-16T02:25:29.153Z,30.90
2022-12-16T02:28:04.118Z,35.03
2022-12-16T02:30:49.473Z,32.13
2022-12-16T02:33:29.095Z,32.10
2022-12-16T02:36:28.744Z,29.58
2022-12-16T02:39:11.902Z,29.20
2022-12-16T02:41:49.526Z,29.33
2022-12-16T02:44:17.455Z,28.45
2022-12-16T02:46:53.135Z,30.52
2022-12-16T02:49:21.814Z,28.95
2022-12-16T02:51:49.306Z,30.52
2022-12-16T02:54:17.554Z,29.40
2022-12-16T02:57:02.532Z,31.10
2022-12-16T02:59:54.185Z,28.75
2022-12-16T03:02:42.673Z,27.88
2022-12-16T03:05:18.979Z,28.30
2022-12-16T03:07:47.497Z,29.02
2022-12-16T03:10:18.309Z,26.98
2022-12-16T03:12:46.298Z,30.63
2022-12-16T03:15:19.213Z,28.23
2022-12-16T03:17:48.732Z,29.15
2022-12-16T03:20:50.010Z,26.85
2022-12-16T03:23:22.839Z,27.17
2022-12-16T03:25:54.329Z,26.50
2022-12-16T03:28:39.793Z,27.77
2022-12-16T03:31:43.930Z,29.20
2022-12-16T03:34:45.554Z,25.33
2022-12-16T03:37:13.674Z,25.08
2022-12-16T03:39:44.990Z,26.50
2022-12-16T03:42:13.518Z,26.17
2022-12-16T03:44:40.061Z,26.63
2022-12-16T03:47:06.593Z,27.45
2022-12-16T03:49:33.052Z,25.75
2022-12-16T03:51:59.706Z,24.75
2022-12-16T03:54:26.225Z,23.33
2022-12-16T03:56:52.714Z,23.60
2022-12-16T03:59:19.261Z,24.63
2022-12-16T04:01:45.889Z,25.55
2022-12-16T04:04:12.800Z,24.98
2022-12-16T04:06:39.293Z,25.45
2022-12-16T04:09:05.877Z,24.35
2022-12-16T04:11:50.766Z,24.92
2022-12-16T04:14:35.706Z,23.77
2022-12-16T04:17:21.414Z,24.77
2022-12-16T04:20:07.346Z,25.40
2022-12-16T04:23:01.930Z,25.65
2022-12-16T04:25:36.933Z,23.80
2022-12-16T04:28:03.473Z,25.15
2022-12-16T04:30:34.729Z,24.23
2022-12-16T04:33:23.661Z,24.70
2022-12-16T04:36:09.120Z,23.75
2022-12-16T04:38:54.835Z,23.92
2022-12-16T04:41:39.956Z,24.05
2022-12-16T04:44:24.990Z,24.35
2022-12-16T04:47:10.282Z,24.83
2022-12-16T04:49:55.045Z,23.75
2022-12-16T04:52:40.521Z,24.08
2022-12-16T04:55:27.040Z,24.17
2022-12-16T04:58:13.832Z,23.77
2022-12-16T05:00:59.750Z,24.10
2022-12-16T05:03:45.828Z,24.85
2022-12-16T05:06:31.889Z,22.67
2022-12-16T05:09:17.245Z,21.17
2022-12-16T05:12:01.965Z,23.00
2022-12-16T05:14:47.461Z,22.25
2022-12-16T05:17:32.708Z,21.15
2022-12-16T05:20:34.376Z,21.02
2022-12-16T05:23:19.598Z,19.55
2022-12-16T05:26:04.277Z,21.42
2022-12-16T05:28:49.344Z,21.77
2022-12-16T05:31:34.184Z,22.70
2022-12-16T05:34:19.473Z,22.30
2022-12-16T05:37:04.853Z,21.15
2022-12-16T05:39:49.657Z,20.13
2022-12-16T05:42:34.646Z,21.27
2022-12-16T05:45:19.485Z,20.08
2022-12-16T05:48:07.328Z,22.50
2022-12-16T05:50:52.631Z,22.88
2022-12-16T05:53:37.432Z,21.17
2022-12-16T05:56:23.040Z,22.58
2022-12-16T05:59:07.966Z,21.52
2022-12-16T06:01:53.016Z,21.20
2022-12-16T06:04:38.090Z,21.35
2022-12-16T06:07:23.612Z,19.30
2022-12-16T06:10:08.418Z,20.13
2022-12-16T06:12:53.792Z,19.55
2022-12-16T06:15:38.687Z,18.40
2022-12-16T06:18:23.869Z,18.30
2022-12-16T06:21:08.806Z,18.27
2022-12-16T06:23:53.488Z,18.83
2022-12-16T06:26:38.837Z,16.30
2022-12-16T06:29:23.573Z,16.23
2022-12-16T06:32:08.525Z,15.80
2022-12-16T06:34:53.460Z,15.10
2022-12-16T06:37:38.208Z,16.77
2022-12-16T06:40:24.111Z,17.52
2022-12-16T06:43:08.948Z,17.02
2022-12-16T06:45:54.111Z,17.30
2022-12-16T06:48:38.902Z,17.33
2022-12-16T06:51:24.498Z,17.98
2022-12-16T06:54:09.683Z,18.05
2022-12-16T06:56:55.218Z,18.75
2022-12-16T06:59:40.623Z,19.13
2022-12-16T07:02:29.499Z,19.10
2022-12-16T07:05:14.643Z,18.48
2022-12-16T07:08:09.179Z,17.35
2022-12-16T07:10:57.980Z,18.35
2022-12-16T07:13:46.497Z,17.52
2022-12-16T07:16:31.252Z,17.83
2022-12-16T07:19:16.275Z,18.63
2022-12-16T07:22:01.378Z,18.02
2022-12-16T07:24:46.199Z,18.85
2022-12-16T07:27:31.222Z,19.33
2022-12-16T07:30:16.090Z,19.90
2022-12-16T07:33:01.074Z,19.65
2022-12-16T07:35:45.924Z,20.20
2022-12-16T07:38:31.431Z,20.45
2022-12-16T07:41:16.235Z,20.63
2022-12-16T07:44:01.114Z,20.10
2022-12-16T07:46:46.002Z,20.25
2022-12-16T07:49:30.798Z,19.45
2022-12-16T07:52:15.797Z,21.17
2022-12-16T07:55:00.510Z,20.38
2022-12-16T07:57:45.346Z,19.88
2022-12-16T08:00:30.639Z,18.95
2022-12-16T08:03:15.651Z,19.70
2022-12-16T08:06:00.808Z,19.48
2022-12-16T08:08:45.601Z,19.42
2022-12-16T08:11:30.629Z,20.15
2022-12-16T08:14:15.462Z,21.70
2022-12-16T08:17:00.412Z,19.75
2022-12-16T08:19:45.510Z,20.80
2022-12-16T08:22:30.430Z,21.08
2022-12-16T08:25:15.271Z,20.73
2022-12-16T08:28:00.245Z,20.40
2022-12-16T08:30:45.184Z,21.23
2022-12-16T08:33:30.280Z,19.73
2022-12-16T08:36:18.299Z,20.20
2022-12-16T08:39:02.936Z,18.27
2022-12-16T08:41:47.811Z,19.65
2022-12-16T08:44:32.563Z,19.83
2022-12-16T08:47:24.876Z,18.60
2022-12-16T08:50:09.910Z,17.95
2022-12-16T08:52:54.869Z,19.63
2022-12-16T08:55:39.751Z,19.02
2022-12-16T08:58:24.721Z,17.13
2022-12-16T09:01:09.649Z,18.73
2022-12-16T09:03:55.461Z,19.92
2022-12-16T09:06:41.771Z,21.05
2022-12-16T09:09:28.238Z,21.08
2022-12-16T09:12:13.831Z,20.92
2022-12-16T09:14:58.566Z,21.20
2022-12-16T09:17:43.426Z,20.30
2022-12-16T09:20:28.699Z,20.83
2022-12-16T09:23:14.208Z,21.40
2022-12-16T09:25:59.459Z,19.35
2022-12-16T09:28:44.540Z,20.02
2022-12-16T09:31:29.472Z,19.67
2022-12-16T09:34:14.591Z,21.90
2022-12-16T09:36:59.611Z,20.92
2022-12-16T09:39:44.423Z,20.65
2022-12-16T09:43:11.557Z,20.65
2022-12-16T09:46:31.062Z,17.95
2022-12-16T09:49:25.045Z,21.92
2022-12-16T09:52:16.518Z,18.38
2022-12-16T09:55:05.445Z,18.50
2022-12-16T09:57:53.712Z,18.85
2022-12-16T10:00:43.062Z,20.65
2022-12-16T10:03:41.326Z,21.30
2022-12-16T10:06:48.409Z,19.35
2022-12-16T10:09:39.359Z,21.33
2022-12-16T10:12:50.526Z,21.85
2022-12-16T10:15:45.451Z,18.92
2022-12-16T10:18:47.247Z,19.48
2022-12-16T10:21:40.451Z,19.27
2022-12-16T10:24:59.709Z,20.63
2022-12-16T10:28:06.136Z,18.10
2022-12-16T10:30:53.604Z,17.48
2022-12-16T10:33:40.863Z,16.63
2022-12-16T10:36:39.356Z,16.48
2022-12-16T10:39:43.254Z,17.40
2022-12-16T10:42:49.418Z,15.57
2022-12-16T10:45:44.527Z,13.68
2022-12-16T10:48:30.732Z,15.68
2022-12-16T10:51:18.916Z,13.98
2022-12-16T10:54:08.795Z,15.75
2022-12-16T10:56:53.626Z,15.93
2022-12-16T10:59:38.940Z,15.52
2022-12-16T11:02:37.632Z,15.35
2022-12-16T11:05:50.952Z,15.07
2022-12-16T11:08:46.793Z,13.60
2022-12-16T11:11:39.058Z,14.65
2022-12-16T11:15:12.421Z,13.10
2022-12-16T11:17:54.567Z,13.85
2022-12-16T11:20:48.837Z,13.80
2022-12-16T11:23:42.221Z,11.95
2022-12-16T11:26:37.650Z,9.32
2022-12-16T11:29:30.567Z,11.15
2022-12-16T11:32:27.697Z,10.48
2022-12-16T11:35:16.609Z,11.02
2022-12-16T11:38:02.522Z,11.05
2022-12-16T11:40:49.799Z,11.55
2022-12-16T11:43:37.245Z,10.52
2022-12-16T11:46:28.985Z,10.20
2022-12-16T11:49:24.738Z,10.35
2022-12-16T11:52:35.812Z,9.73
2022-12-16T11:56:05.434Z,10.00
2022-12-16T11:59:12.635Z,9.27
2022-12-16T12:02:06.705Z,9.45
2022-12-16T12:07:58.571Z,8.73
2022-12-16T12:11:12.314Z,10.15
2022-12-16T12:14:14.111Z,9.23
2022-12-16T12:17:09.623Z,9.98
2022-12-16T12:20:11.257Z,9.30
2022-12-16T12:22:58.482Z,10.18
2022-12-16T12:25:49.506Z,9.38
2022-12-16T12:28:49.614Z,8.60
2022-12-16T12:31:46.620Z,9.18
2022-12-16T12:35:09.866Z,7.32
2022-12-16T12:38:30.180Z,7.15
2022-12-16T12:41:30.101Z,7.38
2022-12-16T12:44:36.951Z,7.80
2022-12-16T12:47:36.232Z,7.35
2022-12-16T12:50:27.203Z,7.50
2022-12-16T12:53:24.293Z,6.72
2022-12-16T12:56:38.299Z,8.07
2022-12-16T12:59:35.366Z,8.57
2022-12-16T13:02:25.084Z,7.85
2022-12-16T13:05:11.193Z,7.53
2022-12-16T13:07:55.914Z,8.02
2022-12-16T13:10:44.490Z,7.05
2022-12-16T13:13:36.205Z,7.55
2022-12-16T13:16:23.937Z,8.38
2022-12-16T13:19:47.759Z,8.45
2022-12-16T13:22:51.879Z,8.85
2022-12-16T13:26:07.087Z,9.15
2022-12-16T13:28:58.130Z,8.93
2022-12-16T13:31:45.041Z,9.52
2022-12-16T13:34:33.271Z,10.25
2022-12-16T13:37:26.891Z,10.48
2022-12-16T13:40:36.720Z,9.68
2022-12-16T13:43:23.939Z,10.90
2022-12-16T13:46:18.298Z,9.90
2022-12-16T13:49:03.538Z,10.07
2022-12-16T13:51:57.717Z,9.50
2022-12-16T13:54:58.007Z,8.82
2022-12-16T13:57:45.307Z,10.48
2022-12-16T14:00:42.373Z,9.02
2022-12-16T14:03:40.768Z,10.65
2022-12-16T14:06:34.547Z,11.45
2022-12-16T14:09:22.967Z,11.00
2022-12-16T14:12:19.726Z,12.60
2022-12-16T14:15:18.391Z,10.82
2022-12-16T14:18:58.594Z,12.93
2022-12-16T14:21:53.564Z,11.48
2022-12-16T14:24:44.030Z,11.70
2022-12-16T14:27:35.944Z,14.73
2022-12-16T14:30:34.325Z,12.90
2022-12-16T14:33:19.185Z,13.55
2022-12-16T14:36:08.231Z,13.13
2022-12-16T14:38:54.169Z,13.52
2022-12-16T14:41:44.023Z,15.07
2022-12-16T14:44:47.003Z,14.98
2022-12-16T14:47:36.472Z,11.57
2022-12-16T14:50:22.273Z,10.80
2022-12-16T14:53:07.133Z,9.93
2022-12-16T14:55:54.013Z,10.25
2022-12-16T14:58:41.808Z,10.70
2022-12-16T15:01:33.785Z,12.32
2022-12-16T15:04:24.044Z,12.85
2022-12-16T15:07:12.505Z,10.75
2022-12-16T15:10:05.072Z,10.77
2022-12-16T15:12:55.937Z,10.55
2022-12-16T15:16:00.902Z,11.57
2022-12-16T15:18:53.444Z,11.48
2022-12-16T15:21:38.668Z,10.30
2022-12-16T15:24:38.309Z,12.18
2022-12-16T15:27:42.649Z,13.15
2022-12-16T15:33:36.544Z,11.88
2022-12-16T15:36:23.199Z,14.88
2022-12-16T15:39:08.738Z,16.67
2022-12-16T15:41:56.508Z,17.83
2022-12-16T15:44:46.940Z,16.67
2022-12-16T15:47:44.474Z,16.83
2022-12-16T15:50:32.819Z,16.15
2022-12-16T15:53:56.526Z,14.93
2022-12-16T15:56:41.562Z,14.20
2022-12-16T16:00:15.201Z,14.35
2022-12-16T16:03:06.340Z,12.95
2022-12-16T16:05:54.549Z,16.33
2022-12-16T16:08:39.858Z,14.57
2022-12-16T16:11:24.662Z,13.75
2022-12-16T16:14:13.989Z,15.18
2022-12-16T16:16:59.502Z,14.80
2022-12-16T16:19:45.993Z,13.70
2022-12-16T16:22:35.296Z,15.27
2022-12-16T16:25:20.654Z,14.63
2022-12-16T16:28:06.085Z,15.65
2022-12-16T16:30:52.825Z,14.65
2022-12-16T16:33:37.787Z,14.20
2022-12-16T16:36:32.424Z,14.45
2022-12-16T16:39:22.265Z,16.20
2022-12-16T16:42:07.075Z,14.95
2022-12-16T16:44:51.779Z,16.27
2022-12-16T16:47:36.730Z,17.15
2022-12-16T16:50:22.609Z,16.13
2022-12-16T16:53:07.427Z,16.23
2022-12-16T16:55:52.146Z,14.73
2022-12-16T16:58:49.037Z,14.80
2022-12-16T17:01:36.435Z,14.73
2022-12-16T17:04:22.247Z,15.18
2022-12-16T17:07:07.925Z,15.55
2022-12-16T17:09:52.607Z,14.50
2022-12-16T17:12:43.602Z,16.25
2022-12-16T17:15:49.414Z,16.23
2022-12-16T17:18:36.459Z,14.70
2022-12-16T17:21:22.002Z,16.38
2022-12-16T17:24:06.974Z,16.02
2022-12-16T17:26:52.387Z,14.82
2022-12-16T17:29:40.664Z,16.02
2022-12-16T17:32:26.626Z,14.35
2022-12-16T17:35:11.958Z,16.52
2022-12-16T17:37:57.337Z,15.80
2022-12-16T17:40:42.172Z,14.95
2022-12-16T17:43:27.607Z,15.98
2022-12-16T17:46:16.643Z,15.55
2022-12-16T17:49:01.815Z,15.65
2022-12-16T17:51:47.160Z,15.65
2022-12-16T17:54:32.574Z,14.65
2022-12-16T17:57:17.421Z,14.52
2022-12-16T18:00:02.364Z,12.85
2022-12-16T18:02:47.343Z,13.88
2022-12-16T18:05:38.845Z,13.23
2022-12-16T18:08:26.199Z,13.15
2022-12-16T18:11:12.678Z,13.32
2022-12-16T18:13:57.589Z,14.07
2022-12-16T18:16:42.826Z,14.80
2022-12-16T18:19:32.006Z,14.73
2022-12-16T18:22:16.714Z,15.18
2022-12-16T18:25:02.055Z,16.05
2022-12-16T18:27:47.235Z,15.77
2022-12-16T18:30:32.576Z,17.15
2022-12-16T18:33:17.693Z,14.02
2022-12-16T18:36:02.656Z,16.15
2022-12-16T18:38:48.060Z,17.33
2022-12-16T18:41:35.829Z,16.00
2022-12-16T18:44:22.193Z,17.52
2022-12-16T18:47:07.615Z,17.50
2022-12-16T18:49:52.422Z,18.02
2022-12-16T18:52:38.928Z,18.05
2022-12-16T18:55:24.883Z,17.83
2022-12-16T18:58:34.788Z,15.63
2022-12-16T19:01:21.671Z,16.50
2022-12-16T19:04:06.718Z,17.73
2022-12-16T19:07:05.837Z,18.73
2022-12-16T19:09:51.509Z,17.38
2022-12-16T19:12:36.280Z,18.50
2022-12-16T19:15:21.673Z,16.73
2022-12-16T19:18:06.603Z,18.00
2022-12-16T19:20:51.684Z,17.73
2022-12-16T19:23:37.092Z,18.27
2022-12-16T19:26:22.052Z,18.95
2022-12-16T19:29:07.322Z,17.95
2022-12-16T19:31:52.025Z,19.05
2022-12-16T19:34:37.183Z,17.42
2022-12-16T19:37:22.187Z,17.33
2022-12-16T19:40:06.948Z,16.77
2022-12-16T19:42:51.972Z,18.77
2022-12-16T19:45:36.759Z,18.13
2022-12-16T19:48:25.628Z,19.90
2022-12-16T19:51:17.244Z,17.95
2022-12-16T19:54:02.997Z,18.88
2022-12-16T19:56:48.299Z,17.63
2022-12-16T19:59:33.212Z,19.20
2022-12-16T20:02:18.107Z,18.92
2022-12-16T20:05:03.099Z,18.88
2022-12-16T20:07:48.216Z,18.95
2022-12-16T20:10:33.600Z,18.52
2022-12-16T20:13:24.873Z,20.17
2022-12-16T20:16:20.258Z,19.15
2022-12-16T20:19:05.442Z,19.90
2022-12-16T20:21:52.502Z,20.35
2022-12-16T20:24:41.843Z,19.35
2022-12-16T20:27:27.843Z,21.88
2022-12-16T20:30:12.569Z,21.10
2022-12-16T20:32:57.888Z,18.50
2022-12-16T20:35:42.823Z,20.02
2022-12-16T20:38:27.864Z,21.38
2022-12-16T20:41:16.995Z,19.80
2022-12-16T20:44:02.319Z,19.60
2022-12-16T20:46:48.119Z,19.92
2022-12-16T20:49:33.468Z,20.25
2022-12-16T20:52:18.777Z,21.35
2022-12-16T20:55:03.661Z,19.50
2022-12-16T20:57:48.922Z,19.83
2022-12-16T21:00:34.280Z,20.00
2022-12-16T21:03:19.616Z,19.50
2022-12-16T21:06:04.696Z,20.10
2022-12-16T21:08:49.855Z,20.17
2022-12-16T21:11:34.706Z,20.25
2022-12-16T21:14:19.831Z,19.88
2022-12-16T21:17:04.923Z,21.08
2022-12-16T21:20:03.466Z,20.90
2022-12-16T21:22:48.189Z,18.92
2022-12-16T21:25:33.463Z,19.40
2022-12-16T21:28:18.912Z,18.10
2022-12-16T21:31:04.784Z,17.02
2022-12-16T21:33:50.170Z,17.52
2022-12-16T21:36:35.218Z,17.65
2022-12-16T21:39:20.657Z,18.15
2022-12-16T21:42:05.500Z,17.20
2022-12-16T21:44:50.477Z,16.30
2022-12-16T21:47:35.621Z,17.85
2022-12-16T21:50:20.516Z,17.40
2022-12-16T21:53:06.472Z,17.90
2022-12-16T21:55:51.220Z,18.20
2022-12-16T21:58:36.938Z,19.52
2022-12-16T22:01:22.281Z,17.73
2022-12-16T22:04:07.514Z,17.92
2022-12-16T22:06:52.370Z,19.27
2022-12-16T22:09:37.201Z,18.27
2022-12-16T22:12:22.365Z,17.75
2022-12-16T22:15:07.524Z,17.77
2022-12-16T22:17:57.961Z,18.98
2022-12-16T22:20:43.569Z,17.85
2022-12-16T22:23:28.634Z,19.40
2022-12-16T22:26:15.655Z,19.65
2022-12-16T22:29:01.332Z,19.00
2022-12-16T22:31:46.778Z,18.13
2022-12-16T22:34:31.921Z,19.23
2022-12-16T22:37:16.795Z,18.88
2022-12-16T22:40:01.624Z,19.08
2022-12-16T22:42:46.533Z,18.30
2022-12-16T22:45:31.892Z,19.20
2022-12-16T22:48:16.759Z,18.13
2022-12-16T22:51:01.473Z,17.98
2022-12-16T22:53:46.847Z,18.13
2022-12-16T22:56:31.800Z,24.00
2022-12-16T22:59:16.750Z,19.98
2022-12-16T23:02:01.996Z,18.35
2022-12-16T23:04:47.297Z,18.38
2022-12-16T23:07:32.898Z,18.13
2022-12-16T23:10:18.213Z,17.42
2022-12-16T23:13:02.976Z,18.85
2022-12-16T23:15:47.990Z,18.83
2022-12-16T23:18:33.323Z,18.63
2022-12-16T23:21:18.117Z,18.73
2022-12-16T23:24:02.829Z,19.42
2022-12-16T23:26:47.640Z,20.48
2022-12-16T23:29:32.499Z,20.80
2022-12-16T23:32:17.355Z,19.23
2022-12-16T23:35:02.236Z,19.10
2022-12-16T23:37:47.650Z,19.67
2022-12-16T23:40:32.340Z,20.15
2022-12-16T23:43:17.111Z,19.48
2022-12-16T23:46:03.150Z,21.23
2022-12-16T23:48:48.392Z,20.90
2022-12-16T23:51:33.254Z,21.10
2022-12-16T23:54:18.074Z,22.13
2022-12-16T23:57:03.078Z,21.98
2022-12-16T23:59:47.705Z,22.58
